SVPL1: Red River at Shreveport Site 2

                                SHEF ID:       SVPL1     Red River at Shreveport Site 2
STATION TYPE:

PRECIP STAGE RIV-FLOW VOLTAGE
in ft cfs volt
Ccp-Rev Ccp-Rev Ccp-Rev Ccp-Rev
(America/Chicago)
06/22 00:00 0.00 19.57 42850 12.82
06/22 01:00 0.00 19.60 43000 12.81
06/22 02:00 0.00 19.65 43250 12.80
06/22 03:00 0.00 19.69 43450 12.77
06/22 04:00 0.00 19.69 43450 12.77
06/22 05:00 0.00 19.75 43750 12.75
06/22 06:00 0.00 19.77 43850 12.77
06/22 07:00 0.00 19.78 43900 12.78
06/22 08:00 0.00 19.82 44100 13.05
06/22 09:00 0.00 19.79 43950 12.84
06/22 10:00 0.00 19.88 44400 13.22
06/22 11:00 0.00 19.93 44650 13.05
06/22 12:00 0.00 19.88 44400 13.22
06/22 13:00 ---- ---- ---- ----
06/22 14:00 ---- 19.97 44850 13.09
06/22 15:00 0.00 19.98 44900 13.09
06/22 16:00 0.00 19.95 44750 13.06
06/22 17:00 0.00 20.05 45250 13.07
06/22 18:00 0.00 20.10 45500 13.05
06/22 19:00 0.00 20.10 45500 12.91
06/22 20:00 0.00 20.13 45650 12.88
06/22 21:00 0.00 20.13 45650 12.86
06/22 22:00 0.00 20.12 45600 12.84
06/22 23:00 0.00 20.13 45650 12.86
Data processed at Tue 23Jun2026 04:24 GMT

NOTICE: If you are parsing this page

Please convert to using our Data API. Starting early 2026 we will be migrating to: https://water.usace.army.mil with modern pages rendered in JavaScript. When this migration completes you will no longer be able to scrape this page! CWMSDataAPI (CDA)

Timeseries IDs (TSIDs)

TSIDs used from left to right in the data table
SHRE.Precip-Inc.Total.1Hour.1Hour.Ccp-Rev
SHRE.Stage.Inst.1Hour.0.Ccp-Rev
SHRE.Flow.Inst.1Hour.0.Ccp-Rev
SHRE.Volt-Battery.Inst.1Hour.0.Ccp-Rev

                            

All information presented herein is the property of the government of the United States of America and may be revised or deleted at any time without prior notice. Dissemination of this information without the expressed written consent of the Public Affairs Office, Tulsa District U.S. Army Corps of Engineers is strictly prohibited. These data are gathered electronically and, as presented, have NOT undergone any form of quality control. These data are NOT guaranteed to be valid or correct.